sensor_id;sensor_type;location;lat;lon;timestamp;P1;durP1;ratioP1;P2;durP2;ratioP2
64887;SDS011;51386;53.082;8.816;2023-07-24T00:02:06;3.30;;;3.00;;
64887;SDS011;51386;53.082;8.816;2023-07-24T00:04:33;3.57;;;3.00;;
64887;SDS011;51386;53.082;8.816;2023-07-24T00:07:02;3.00;;;2.70;;
64887;SDS011;51386;53.082;8.816;2023-07-24T00:09:29;4.70;;;3.53;;
64887;SDS011;51386;53.082;8.816;2023-07-24T00:11:56;2.97;;;2.73;;
64887;SDS011;51386;53.082;8.816;2023-07-24T00:14:24;3.33;;;2.90;;
64887;SDS011;51386;53.082;8.816;2023-07-24T00:16:51;3.20;;;2.90;;
64887;SDS011;51386;53.082;8.816;2023-07-24T00:19:18;3.43;;;3.13;;
64887;SDS011;51386;53.082;8.816;2023-07-24T00:21:45;3.00;;;2.80;;
64887;SDS011;51386;53.082;8.816;2023-07-24T00:24:13;2.90;;;2.70;;
64887;SDS011;51386;53.082;8.816;2023-07-24T00:26:41;3.63;;;3.17;;
64887;SDS011;51386;53.082;8.816;2023-07-24T00:29:08;3.10;;;2.80;;
64887;SDS011;51386;53.082;8.816;2023-07-24T00:31:35;3.03;;;2.73;;
64887;SDS011;51386;53.082;8.816;2023-07-24T00:34:01;3.87;;;3.47;;
64887;SDS011;51386;53.082;8.816;2023-07-24T00:36:29;3.50;;;3.20;;
64887;SDS011;51386;53.082;8.816;2023-07-24T00:38:56;4.27;;;2.83;;
64887;SDS011;51386;53.082;8.816;2023-07-24T00:41:24;2.60;;;2.40;;
64887;SDS011;51386;53.082;8.816;2023-07-24T00:43:51;3.73;;;2.83;;
64887;SDS011;51386;53.082;8.816;2023-07-24T00:46:18;3.20;;;2.80;;
64887;SDS011;51386;53.082;8.816;2023-07-24T00:48:46;2.60;;;2.40;;
64887;SDS011;51386;53.082;8.816;2023-07-24T00:51:14;3.33;;;3.07;;
64887;SDS011;51386;53.082;8.816;2023-07-24T00:53:41;3.60;;;2.50;;
64887;SDS011;51386;53.082;8.816;2023-07-24T00:56:08;3.10;;;2.90;;
64887;SDS011;51386;53.082;8.816;2023-07-24T00:58:38;3.57;;;2.87;;
64887;SDS011;51386;53.082;8.816;2023-07-24T01:01:06;2.87;;;2.67;;
64887;SDS011;51386;53.082;8.816;2023-07-24T01:03:34;3.20;;;3.00;;
64887;SDS011;51386;53.082;8.816;2023-07-24T01:06:03;2.40;;;2.30;;
64887;SDS011;51386;53.082;8.816;2023-07-24T01:08:30;2.90;;;2.40;;
64887;SDS011;51386;53.082;8.816;2023-07-24T01:10:57;2.53;;;2.33;;
64887;SDS011;51386;53.082;8.816;2023-07-24T01:13:33;2.77;;;2.57;;
64887;SDS011;51386;53.082;8.816;2023-07-24T01:16:08;2.40;;;2.20;;
64887;SDS011;51386;53.082;8.816;2023-07-24T01:18:40;2.97;;;2.67;;
64887;SDS011;51386;53.082;8.816;2023-07-24T01:21:11;3.90;;;2.87;;
64887;SDS011;51386;53.082;8.816;2023-07-24T01:23:50;3.27;;;2.63;;
64887;SDS011;51386;53.082;8.816;2023-07-24T01:26:28;3.10;;;2.57;;
64887;SDS011;51386;53.082;8.816;2023-07-24T01:28:55;2.80;;;2.60;;
64887;SDS011;51386;53.082;8.816;2023-07-24T01:31:22;3.63;;;3.03;;
64887;SDS011;51386;53.082;8.816;2023-07-24T01:33:49;2.80;;;2.60;;
64887;SDS011;51386;53.082;8.816;2023-07-24T01:36:16;2.70;;;2.50;;
64887;SDS011;51386;53.082;8.816;2023-07-24T01:38:45;2.63;;;2.33;;
64887;SDS011;51386;53.082;8.816;2023-07-24T01:41:16;2.90;;;2.70;;
64887;SDS011;51386;53.082;8.816;2023-07-24T01:43:45;3.50;;;3.20;;
64887;SDS011;51386;53.082;8.816;2023-07-24T01:46:12;4.07;;;3.40;;
64887;SDS011;51386;53.082;8.816;2023-07-24T01:48:40;4.00;;;3.67;;
64887;SDS011;51386;53.082;8.816;2023-07-24T01:51:07;3.87;;;3.40;;
64887;SDS011;51386;53.082;8.816;2023-07-24T01:53:34;4.20;;;3.20;;
64887;SDS011;51386;53.082;8.816;2023-07-24T01:56:01;3.40;;;3.10;;
64887;SDS011;51386;53.082;8.816;2023-07-24T01:58:28;4.87;;;3.93;;
64887;SDS011;51386;53.082;8.816;2023-07-24T02:00:56;4.17;;;3.53;;
64887;SDS011;51386;53.082;8.816;2023-07-24T02:03:23;4.33;;;3.30;;
64887;SDS011;51386;53.082;8.816;2023-07-24T02:05:51;5.33;;;3.43;;
64887;SDS011;51386;53.082;8.816;2023-07-24T02:08:18;4.07;;;3.63;;
64887;SDS011;51386;53.082;8.816;2023-07-24T02:10:47;3.20;;;3.00;;
64887;SDS011;51386;53.082;8.816;2023-07-24T02:13:15;4.27;;;3.60;;
64887;SDS011;51386;53.082;8.816;2023-07-24T02:15:42;3.63;;;3.17;;
64887;SDS011;51386;53.082;8.816;2023-07-24T02:18:10;4.10;;;3.70;;
64887;SDS011;51386;53.082;8.816;2023-07-24T02:20:37;4.73;;;3.43;;
64887;SDS011;51386;53.082;8.816;2023-07-24T02:23:04;4.23;;;3.70;;
64887;SDS011;51386;53.082;8.816;2023-07-24T02:25:33;3.47;;;3.17;;
64887;SDS011;51386;53.082;8.816;2023-07-24T02:28:02;3.90;;;3.60;;
64887;SDS011;51386;53.082;8.816;2023-07-24T02:30:29;3.83;;;3.37;;
64887;SDS011;51386;53.082;8.816;2023-07-24T02:32:56;4.50;;;3.40;;
64887;SDS011;51386;53.082;8.816;2023-07-24T02:35:25;4.50;;;3.60;;
64887;SDS011;51386;53.082;8.816;2023-07-24T02:37:52;4.30;;;3.30;;
64887;SDS011;51386;53.082;8.816;2023-07-24T02:40:19;3.67;;;3.37;;
64887;SDS011;51386;53.082;8.816;2023-07-24T02:42:46;4.30;;;3.90;;
64887;SDS011;51386;53.082;8.816;2023-07-24T02:45:13;4.67;;;4.27;;
64887;SDS011;51386;53.082;8.816;2023-07-24T02:47:40;5.70;;;4.27;;
64887;SDS011;51386;53.082;8.816;2023-07-24T02:50:09;4.13;;;3.73;;
64887;SDS011;51386;53.082;8.816;2023-07-24T02:52:37;3.80;;;3.50;;
64887;SDS011;51386;53.082;8.816;2023-07-24T02:55:04;5.80;;;3.63;;
64887;SDS011;51386;53.082;8.816;2023-07-24T02:57:32;4.13;;;3.73;;
64887;SDS011;51386;53.082;8.816;2023-07-24T02:59:59;5.57;;;3.90;;
64887;SDS011;51386;53.082;8.816;2023-07-24T03:02:26;4.30;;;3.90;;
64887;SDS011;51386;53.082;8.816;2023-07-24T03:04:53;5.47;;;4.70;;
64887;SDS011;51386;53.082;8.816;2023-07-24T03:07:20;4.97;;;4.47;;
64887;SDS011;51386;53.082;8.816;2023-07-24T03:09:50;4.50;;;4.10;;
64887;SDS011;51386;53.082;8.816;2023-07-24T03:12:17;5.00;;;4.50;;
64887;SDS011;51386;53.082;8.816;2023-07-24T03:14:44;4.43;;;4.03;;
64887;SDS011;51386;53.082;8.816;2023-07-24T03:17:11;4.63;;;4.23;;
64887;SDS011;51386;53.082;8.816;2023-07-24T03:19:38;4.90;;;4.40;;
64887;SDS011;51386;53.082;8.816;2023-07-24T03:22:06;4.47;;;3.80;;
64887;SDS011;51386;53.082;8.816;2023-07-24T03:24:33;5.07;;;4.27;;
64887;SDS011;51386;53.082;8.816;2023-07-24T03:27:02;4.63;;;4.23;;
64887;SDS011;51386;53.082;8.816;2023-07-24T03:29:30;6.37;;;4.20;;
64887;SDS011;51386;53.082;8.816;2023-07-24T03:31:57;5.43;;;4.73;;
64887;SDS011;51386;53.082;8.816;2023-07-24T03:34:24;5.63;;;5.07;;
64887;SDS011;51386;53.082;8.816;2023-07-24T03:36:51;4.80;;;4.40;;
64887;SDS011;51386;53.082;8.816;2023-07-24T03:39:18;4.63;;;4.20;;
64887;SDS011;51386;53.082;8.816;2023-07-24T03:41:45;5.57;;;4.20;;
64887;SDS011;51386;53.082;8.816;2023-07-24T03:44:13;5.97;;;4.47;;
64887;SDS011;51386;53.082;8.816;2023-07-24T03:46:40;4.23;;;3.83;;
64887;SDS011;51386;53.082;8.816;2023-07-24T03:49:07;5.17;;;4.40;;
64887;SDS011;51386;53.082;8.816;2023-07-24T03:51:34;4.13;;;3.80;;
64887;SDS011;51386;53.082;8.816;2023-07-24T03:54:01;5.87;;;4.23;;
64887;SDS011;51386;53.082;8.816;2023-07-24T03:56:28;4.57;;;4.17;;
64887;SDS011;51386;53.082;8.816;2023-07-24T03:58:56;5.27;;;4.13;;
64887;SDS011;51386;53.082;8.816;2023-07-24T04:01:24;4.50;;;4.10;;
64887;SDS011;51386;53.082;8.816;2023-07-24T04:03:51;4.23;;;3.73;;
64887;SDS011;51386;53.082;8.816;2023-07-24T04:06:19;6.80;;;3.80;;
64887;SDS011;51386;53.082;8.816;2023-07-24T04:08:46;4.20;;;3.80;;
64887;SDS011;51386;53.082;8.816;2023-07-24T04:11:13;4.00;;;3.70;;
64887;SDS011;51386;53.082;8.816;2023-07-24T04:13:40;4.33;;;3.70;;
64887;SDS011;51386;53.082;8.816;2023-07-24T04:16:07;4.20;;;3.80;;
64887;SDS011;51386;53.082;8.816;2023-07-24T04:18:35;5.53;;;3.77;;
64887;SDS011;51386;53.082;8.816;2023-07-24T04:21:02;3.80;;;3.27;;
64887;SDS011;51386;53.082;8.816;2023-07-24T04:23:29;3.97;;;3.57;;
64887;SDS011;51386;53.082;8.816;2023-07-24T04:25:56;4.17;;;3.10;;
64887;SDS011;51386;53.082;8.816;2023-07-24T04:28:23;3.73;;;3.43;;
64887;SDS011;51386;53.082;8.816;2023-07-24T04:30:50;3.67;;;3.37;;
64887;SDS011;51386;53.082;8.816;2023-07-24T04:33:17;3.87;;;3.57;;
64887;SDS011;51386;53.082;8.816;2023-07-24T04:35:48;3.37;;;3.07;;
64887;SDS011;51386;53.082;8.816;2023-07-24T04:38:15;3.47;;;2.90;;
64887;SDS011;51386;53.082;8.816;2023-07-24T04:40:43;3.93;;;3.43;;
64887;SDS011;51386;53.082;8.816;2023-07-24T04:43:11;3.87;;;3.30;;
64887;SDS011;51386;53.082;8.816;2023-07-24T04:45:38;3.13;;;2.83;;
64887;SDS011;51386;53.082;8.816;2023-07-24T04:48:05;2.80;;;2.60;;
64887;SDS011;51386;53.082;8.816;2023-07-24T04:50:32;3.40;;;3.07;;
64887;SDS011;51386;53.082;8.816;2023-07-24T04:53:00;3.77;;;2.93;;
64887;SDS011;51386;53.082;8.816;2023-07-24T04:55:28;4.43;;;3.20;;
64887;SDS011;51386;53.082;8.816;2023-07-24T04:57:55;3.40;;;2.80;;
64887;SDS011;51386;53.082;8.816;2023-07-24T05:00:22;6.77;;;2.63;;
64887;SDS011;51386;53.082;8.816;2023-07-24T05:02:49;4.10;;;3.13;;
64887;SDS011;51386;53.082;8.816;2023-07-24T05:05:16;3.03;;;2.70;;
64887;SDS011;51386;53.082;8.816;2023-07-24T05:07:43;5.60;;;3.00;;
64887;SDS011;51386;53.082;8.816;2023-07-24T05:10:11;3.07;;;2.87;;
64887;SDS011;51386;53.082;8.816;2023-07-24T05:12:40;3.50;;;3.17;;
64887;SDS011;51386;53.082;8.816;2023-07-24T05:15:08;2.63;;;2.43;;
64887;SDS011;51386;53.082;8.816;2023-07-24T05:17:35;3.30;;;3.00;;
64887;SDS011;51386;53.082;8.816;2023-07-24T05:20:03;3.97;;;3.47;;
64887;SDS011;51386;53.082;8.816;2023-07-24T05:22:31;3.40;;;3.10;;
64887;SDS011;51386;53.082;8.816;2023-07-24T05:24:58;3.53;;;3.23;;
64887;SDS011;51386;53.082;8.816;2023-07-24T05:27:27;2.77;;;2.57;;
64887;SDS011;51386;53.082;8.816;2023-07-24T05:29:55;2.37;;;2.17;;
64887;SDS011;51386;53.082;8.816;2023-07-24T05:32:22;2.60;;;2.40;;
64887;SDS011;51386;53.082;8.816;2023-07-24T05:34:49;2.67;;;2.47;;
64887;SDS011;51386;53.082;8.816;2023-07-24T05:37:16;2.83;;;2.53;;
64887;SDS011;51386;53.082;8.816;2023-07-24T05:39:43;2.87;;;2.67;;
64887;SDS011;51386;53.082;8.816;2023-07-24T05:42:10;2.93;;;2.63;;
64887;SDS011;51386;53.082;8.816;2023-07-24T05:44:39;2.63;;;2.43;;
64887;SDS011;51386;53.082;8.816;2023-07-24T05:47:06;2.90;;;2.70;;
64887;SDS011;51386;53.082;8.816;2023-07-24T05:49:33;2.60;;;2.40;;
64887;SDS011;51386;53.082;8.816;2023-07-24T05:52:00;3.03;;;2.73;;
64887;SDS011;51386;53.082;8.816;2023-07-24T05:54:27;3.60;;;3.00;;
64887;SDS011;51386;53.082;8.816;2023-07-24T05:56:54;2.93;;;2.67;;
64887;SDS011;51386;53.082;8.816;2023-07-24T05:59:21;2.30;;;2.10;;
64887;SDS011;51386;53.082;8.816;2023-07-24T06:01:49;3.33;;;2.90;;
64887;SDS011;51386;53.082;8.816;2023-07-24T06:04:17;2.60;;;2.40;;
64887;SDS011;51386;53.082;8.816;2023-07-24T06:06:44;2.80;;;2.60;;
64887;SDS011;51386;53.082;8.816;2023-07-24T06:09:11;2.77;;;2.57;;
64887;SDS011;51386;53.082;8.816;2023-07-24T06:11:38;2.70;;;2.37;;
64887;SDS011;51386;53.082;8.816;2023-07-24T06:14:05;3.40;;;3.10;;
64887;SDS011;51386;53.082;8.816;2023-07-24T06:16:32;3.37;;;3.07;;
64887;SDS011;51386;53.082;8.816;2023-07-24T06:19:00;4.00;;;3.60;;
64887;SDS011;51386;53.082;8.816;2023-07-24T06:21:27;4.07;;;3.77;;
64887;SDS011;51386;53.082;8.816;2023-07-24T06:23:54;4.10;;;3.70;;
64887;SDS011;51386;53.082;8.816;2023-07-24T06:26:22;4.00;;;3.60;;
64887;SDS011;51386;53.082;8.816;2023-07-24T06:28:49;3.73;;;3.20;;
64887;SDS011;51386;53.082;8.816;2023-07-24T06:31:16;4.13;;;3.83;;
64887;SDS011;51386;53.082;8.816;2023-07-24T06:33:43;4.60;;;4.20;;
64887;SDS011;51386;53.082;8.816;2023-07-24T06:36:12;3.73;;;3.43;;
64887;SDS011;51386;53.082;8.816;2023-07-24T06:38:39;4.70;;;4.27;;
64887;SDS011;51386;53.082;8.816;2023-07-24T06:41:08;4.30;;;3.90;;
64887;SDS011;51386;53.082;8.816;2023-07-24T06:43:35;4.77;;;3.53;;
64887;SDS011;51386;53.082;8.816;2023-07-24T06:46:02;4.20;;;3.80;;
64887;SDS011;51386;53.082;8.816;2023-07-24T06:48:30;5.93;;;5.37;;
64887;SDS011;51386;53.082;8.816;2023-07-24T06:50:58;16.80;;;13.83;;
64887;SDS011;51386;53.082;8.816;2023-07-24T06:53:26;6.30;;;5.80;;
64887;SDS011;51386;53.082;8.816;2023-07-24T06:55:54;4.20;;;3.80;;
64887;SDS011;51386;53.082;8.816;2023-07-24T06:58:21;4.80;;;4.40;;
64887;SDS011;51386;53.082;8.816;2023-07-24T07:00:48;4.10;;;3.80;;
64887;SDS011;51386;53.082;8.816;2023-07-24T07:03:15;5.07;;;3.77;;
64887;SDS011;51386;53.082;8.816;2023-07-24T07:05:42;5.23;;;4.73;;
64887;SDS011;51386;53.082;8.816;2023-07-24T07:08:09;5.03;;;4.40;;
64887;SDS011;51386;53.082;8.816;2023-07-24T07:10:37;5.10;;;4.70;;
64887;SDS011;51386;53.082;8.816;2023-07-24T07:13:05;4.67;;;4.27;;
64887;SDS011;51386;53.082;8.816;2023-07-24T07:15:32;4.87;;;4.37;;
64887;SDS011;51386;53.082;8.816;2023-07-24T07:17:59;4.60;;;4.30;;
64887;SDS011;51386;53.082;8.816;2023-07-24T07:20:26;4.90;;;4.50;;
64887;SDS011;51386;53.082;8.816;2023-07-24T07:22:53;4.50;;;4.10;;
64887;SDS011;51386;53.082;8.816;2023-07-24T07:25:20;5.17;;;4.60;;
64887;SDS011;51386;53.082;8.816;2023-07-24T07:27:48;5.03;;;4.63;;
64887;SDS011;51386;53.082;8.816;2023-07-24T07:30:15;5.77;;;5.27;;
64887;SDS011;51386;53.082;8.816;2023-07-24T07:32:42;5.47;;;4.97;;
64887;SDS011;51386;53.082;8.816;2023-07-24T07:35:09;7.03;;;6.33;;
64887;SDS011;51386;53.082;8.816;2023-07-24T07:37:36;5.77;;;4.97;;
64887;SDS011;51386;53.082;8.816;2023-07-24T07:40:04;6.00;;;5.50;;
64887;SDS011;51386;53.082;8.816;2023-07-24T07:42:32;5.47;;;5.00;;
64887;SDS011;51386;53.082;8.816;2023-07-24T07:45:01;6.13;;;5.63;;
64887;SDS011;51386;53.082;8.816;2023-07-24T07:47:29;5.40;;;4.87;;
64887;SDS011;51386;53.082;8.816;2023-07-24T07:49:57;5.80;;;5.30;;
64887;SDS011;51386;53.082;8.816;2023-07-24T07:52:24;5.60;;;5.10;;
64887;SDS011;51386;53.082;8.816;2023-07-24T07:54:51;5.93;;;5.33;;
64887;SDS011;51386;53.082;8.816;2023-07-24T07:57:18;6.17;;;5.33;;
64887;SDS011;51386;53.082;8.816;2023-07-24T07:59:45;5.63;;;5.23;;
64887;SDS011;51386;53.082;8.816;2023-07-24T08:02:13;5.77;;;5.27;;
64887;SDS011;51386;53.082;8.816;2023-07-24T08:04:40;6.87;;;6.33;;
64887;SDS011;51386;53.082;8.816;2023-07-24T08:07:07;6.27;;;5.77;;
64887;SDS011;51386;53.082;8.816;2023-07-24T08:09:35;6.13;;;5.63;;
64887;SDS011;51386;53.082;8.816;2023-07-24T08:12:04;5.10;;;4.70;;
64887;SDS011;51386;53.082;8.816;2023-07-24T08:14:34;5.57;;;5.17;;
64887;SDS011;51386;53.082;8.816;2023-07-24T08:17:01;6.10;;;5.60;;
64887;SDS011;51386;53.082;8.816;2023-07-24T08:19:30;5.77;;;5.30;;
64887;SDS011;51386;53.082;8.816;2023-07-24T08:21:57;5.90;;;5.40;;
64887;SDS011;51386;53.082;8.816;2023-07-24T08:24:24;6.20;;;5.60;;
64887;SDS011;51386;53.082;8.816;2023-07-24T08:26:52;5.50;;;5.00;;
64887;SDS011;51386;53.082;8.816;2023-07-24T08:29:19;5.50;;;5.03;;
64887;SDS011;51386;53.082;8.816;2023-07-24T08:31:46;5.77;;;5.37;;
64887;SDS011;51386;53.082;8.816;2023-07-24T08:34:14;6.30;;;5.80;;
64887;SDS011;51386;53.082;8.816;2023-07-24T08:36:42;6.30;;;5.90;;
64887;SDS011;51386;53.082;8.816;2023-07-24T08:39:09;6.03;;;5.53;;
64887;SDS011;51386;53.082;8.816;2023-07-24T08:41:36;6.10;;;5.53;;
64887;SDS011;51386;53.082;8.816;2023-07-24T08:44:04;7.23;;;6.63;;
64887;SDS011;51386;53.082;8.816;2023-07-24T08:46:35;8.30;;;5.80;;
64887;SDS011;51386;53.082;8.816;2023-07-24T08:49:03;5.10;;;4.70;;
64887;SDS011;51386;53.082;8.816;2023-07-24T08:51:31;5.53;;;5.07;;
64887;SDS011;51386;53.082;8.816;2023-07-24T08:54:00;6.10;;;5.50;;
64887;SDS011;51386;53.082;8.816;2023-07-24T08:56:28;6.70;;;6.10;;
64887;SDS011;51386;53.082;8.816;2023-07-24T08:58:56;7.60;;;7.00;;
64887;SDS011;51386;53.082;8.816;2023-07-24T09:01:24;5.87;;;5.40;;
64887;SDS011;51386;53.082;8.816;2023-07-24T09:03:51;6.47;;;5.97;;
64887;SDS011;51386;53.082;8.816;2023-07-24T09:06:18;6.10;;;5.70;;
64887;SDS011;51386;53.082;8.816;2023-07-24T09:08:45;6.17;;;5.67;;
64887;SDS011;51386;53.082;8.816;2023-07-24T09:11:14;5.53;;;5.13;;
64887;SDS011;51386;53.082;8.816;2023-07-24T09:13:42;6.27;;;5.73;;
64887;SDS011;51386;53.082;8.816;2023-07-24T09:16:09;5.87;;;5.43;;
64887;SDS011;51386;53.082;8.816;2023-07-24T09:18:48;6.07;;;5.30;;
64887;SDS011;51386;53.082;8.816;2023-07-24T09:21:35;5.00;;;4.60;;
64887;SDS011;51386;53.082;8.816;2023-07-24T09:24:09;6.50;;;5.90;;
64887;SDS011;51386;53.082;8.816;2023-07-24T09:26:47;5.93;;;5.43;;
64887;SDS011;51386;53.082;8.816;2023-07-24T09:29:16;5.50;;;5.03;;
64887;SDS011;51386;53.082;8.816;2023-07-24T09:31:43;6.00;;;5.50;;
64887;SDS011;51386;53.082;8.816;2023-07-24T09:34:15;5.73;;;5.13;;
64887;SDS011;51386;53.082;8.816;2023-07-24T09:36:43;5.43;;;4.53;;
64887;SDS011;51386;53.082;8.816;2023-07-24T09:39:11;4.40;;;4.00;;
64887;SDS011;51386;53.082;8.816;2023-07-24T09:41:38;4.20;;;3.90;;
64887;SDS011;51386;53.082;8.816;2023-07-24T09:44:11;3.97;;;3.67;;
64887;SDS011;51386;53.082;8.816;2023-07-24T09:46:39;3.53;;;3.30;;
64887;SDS011;51386;53.082;8.816;2023-07-24T09:49:09;4.17;;;3.77;;
64887;SDS011;51386;53.082;8.816;2023-07-24T09:51:38;4.10;;;3.80;;
64887;SDS011;51386;53.082;8.816;2023-07-24T09:54:12;3.63;;;3.33;;
64887;SDS011;51386;53.082;8.816;2023-07-24T09:56:52;3.90;;;3.60;;
64887;SDS011;51386;53.082;8.816;2023-07-24T09:59:37;3.50;;;3.30;;
64887;SDS011;51386;53.082;8.816;2023-07-24T10:02:08;3.17;;;2.97;;
64887;SDS011;51386;53.082;8.816;2023-07-24T10:04:38;3.43;;;3.23;;
64887;SDS011;51386;53.082;8.816;2023-07-24T10:07:07;4.43;;;3.78;;
64887;SDS011;51386;53.082;8.816;2023-07-24T10:09:35;3.35;;;3.10;;
64887;SDS011;51386;53.082;8.816;2023-07-24T10:12:06;3.45;;;3.15;;
64887;SDS011;51386;53.082;8.816;2023-07-24T10:14:35;3.60;;;3.30;;
64887;SDS011;51386;53.082;8.816;2023-07-24T10:17:04;3.33;;;3.13;;
64887;SDS011;51386;53.082;8.816;2023-07-24T10:19:35;4.30;;;3.97;;
64887;SDS011;51386;53.082;8.816;2023-07-24T10:22:05;3.53;;;3.23;;
64887;SDS011;51386;53.082;8.816;2023-07-24T10:24:33;3.40;;;3.20;;
64887;SDS011;51386;53.082;8.816;2023-07-24T10:27:07;4.13;;;3.83;;
64887;SDS011;51386;53.082;8.816;2023-07-24T10:29:35;3.63;;;3.42;;
64887;SDS011;51386;53.082;8.816;2023-07-24T10:32:05;4.28;;;3.88;;
64887;SDS011;51386;53.082;8.816;2023-07-24T10:34:44;4.25;;;3.95;;
64887;SDS011;51386;53.082;8.816;2023-07-24T10:37:11;4.47;;;3.70;;
64887;SDS011;51386;53.082;8.816;2023-07-24T10:39:39;3.33;;;3.03;;
64887;SDS011;51386;53.082;8.816;2023-07-24T10:42:07;3.78;;;3.47;;
64887;SDS011;51386;53.082;8.816;2023-07-24T10:44:36;3.80;;;3.50;;
64887;SDS011;51386;53.082;8.816;2023-07-24T10:47:05;3.60;;;3.38;;
64887;SDS011;51386;53.082;8.816;2023-07-24T10:49:32;3.95;;;3.60;;
64887;SDS011;51386;53.082;8.816;2023-07-24T10:52:00;3.53;;;3.33;;
64887;SDS011;51386;53.082;8.816;2023-07-24T10:54:27;3.80;;;3.50;;
64887;SDS011;51386;53.082;8.816;2023-07-24T10:56:57;3.42;;;3.22;;
64887;SDS011;51386;53.082;8.816;2023-07-24T10:59:36;4.20;;;3.90;;
64887;SDS011;51386;53.082;8.816;2023-07-24T11:02:06;3.93;;;3.63;;
64887;SDS011;51386;53.082;8.816;2023-07-24T11:04:34;4.47;;;4.07;;
64887;SDS011;51386;53.082;8.816;2023-07-24T11:07:01;4.30;;;4.00;;
64887;SDS011;51386;53.082;8.816;2023-07-24T11:09:35;4.53;;;4.20;;
64887;SDS011;51386;53.082;8.816;2023-07-24T11:12:10;4.17;;;3.87;;
64887;SDS011;51386;53.082;8.816;2023-07-24T11:14:47;4.70;;;4.40;;
64887;SDS011;51386;53.082;8.816;2023-07-24T11:17:32;4.73;;;4.43;;
64887;SDS011;51386;53.082;8.816;2023-07-24T11:20:05;4.47;;;4.17;;
64887;SDS011;51386;53.082;8.816;2023-07-24T11:22:34;5.23;;;4.47;;
64887;SDS011;51386;53.082;8.816;2023-07-24T11:25:01;5.43;;;4.97;;
64887;SDS011;51386;53.082;8.816;2023-07-24T11:27:31;5.37;;;4.97;;
64887;SDS011;51386;53.082;8.816;2023-07-24T11:29:58;4.67;;;4.37;;
64887;SDS011;51386;53.082;8.816;2023-07-24T11:32:26;4.60;;;4.20;;
64887;SDS011;51386;53.082;8.816;2023-07-24T11:34:54;4.40;;;4.10;;
64887;SDS011;51386;53.082;8.816;2023-07-24T11:37:21;4.83;;;4.27;;
64887;SDS011;51386;53.082;8.816;2023-07-24T11:39:55;5.33;;;4.50;;
64887;SDS011;51386;53.082;8.816;2023-07-24T11:42:24;5.97;;;5.43;;
64887;SDS011;51386;53.082;8.816;2023-07-24T11:44:52;6.37;;;5.77;;
64887;SDS011;51386;53.082;8.816;2023-07-24T11:47:20;5.63;;;5.23;;
64887;SDS011;51386;53.082;8.816;2023-07-24T11:49:59;4.93;;;4.53;;
64887;SDS011;51386;53.082;8.816;2023-07-24T11:52:36;6.40;;;5.87;;
64887;SDS011;51386;53.082;8.816;2023-07-24T11:55:06;6.40;;;5.90;;
64887;SDS011;51386;53.082;8.816;2023-07-24T11:57:34;5.60;;;5.20;;
64887;SDS011;51386;53.082;8.816;2023-07-24T12:00:01;6.00;;;5.40;;
64887;SDS011;51386;53.082;8.816;2023-07-24T12:02:31;6.87;;;5.67;;
64887;SDS011;51386;53.082;8.816;2023-07-24T12:05:01;6.03;;;5.30;;
64887;SDS011;51386;53.082;8.816;2023-07-24T12:07:32;6.77;;;6.20;;
64887;SDS011;51386;53.082;8.816;2023-07-24T12:10:01;6.47;;;5.87;;
64887;SDS011;51386;53.082;8.816;2023-07-24T12:12:36;5.93;;;5.53;;
64887;SDS011;51386;53.082;8.816;2023-07-24T12:15:06;6.50;;;5.87;;
64887;SDS011;51386;53.082;8.816;2023-07-24T12:17:34;7.00;;;6.40;;
64887;SDS011;51386;53.082;8.816;2023-07-24T12:20:03;6.03;;;5.63;;
64887;SDS011;51386;53.082;8.816;2023-07-24T12:22:34;6.97;;;6.37;;
64887;SDS011;51386;53.082;8.816;2023-07-24T12:25:01;6.77;;;6.27;;
64887;SDS011;51386;53.082;8.816;2023-07-24T12:27:30;6.30;;;5.80;;
64887;SDS011;51386;53.082;8.816;2023-07-24T12:29:57;7.27;;;6.57;;
64887;SDS011;51386;53.082;8.816;2023-07-24T12:32:26;6.87;;;6.27;;
64887;SDS011;51386;53.082;8.816;2023-07-24T12:34:53;6.03;;;5.53;;
64887;SDS011;51386;53.082;8.816;2023-07-24T12:37:21;6.77;;;6.23;;
64887;SDS011;51386;53.082;8.816;2023-07-24T12:39:49;6.93;;;6.33;;
64887;SDS011;51386;53.082;8.816;2023-07-24T12:42:16;6.57;;;5.93;;
64887;SDS011;51386;53.082;8.816;2023-07-24T12:44:43;6.30;;;5.80;;
64887;SDS011;51386;53.082;8.816;2023-07-24T12:47:10;6.03;;;5.43;;
64887;SDS011;51386;53.082;8.816;2023-07-24T12:49:38;6.03;;;5.50;;
64887;SDS011;51386;53.082;8.816;2023-07-24T12:52:06;6.33;;;5.83;;
64887;SDS011;51386;53.082;8.816;2023-07-24T12:54:35;6.60;;;6.00;;
64887;SDS011;51386;53.082;8.816;2023-07-24T12:57:22;5.80;;;5.30;;
64887;SDS011;51386;53.082;8.816;2023-07-24T12:59:49;7.13;;;5.73;;
64887;SDS011;51386;53.082;8.816;2023-07-24T13:02:16;6.60;;;6.10;;
64887;SDS011;51386;53.082;8.816;2023-07-24T13:04:44;6.03;;;5.47;;
64887;SDS011;51386;53.082;8.816;2023-07-24T13:07:12;6.53;;;5.93;;
64887;SDS011;51386;53.082;8.816;2023-07-24T13:09:40;6.63;;;5.70;;
64887;SDS011;51386;53.082;8.816;2023-07-24T13:12:08;6.73;;;6.03;;
64887;SDS011;51386;53.082;8.816;2023-07-24T13:14:36;5.90;;;5.40;;
64887;SDS011;51386;53.082;8.816;2023-07-24T13:17:07;6.47;;;5.87;;
64887;SDS011;51386;53.082;8.816;2023-07-24T13:19:34;6.20;;;5.53;;
64887;SDS011;51386;53.082;8.816;2023-07-24T13:22:01;7.77;;;6.00;;
64887;SDS011;51386;53.082;8.816;2023-07-24T13:24:29;5.67;;;5.10;;
64887;SDS011;51386;53.082;8.816;2023-07-24T13:26:57;5.27;;;4.87;;
64887;SDS011;51386;53.082;8.816;2023-07-24T13:29:25;5.73;;;5.33;;
64887;SDS011;51386;53.082;8.816;2023-07-24T13:31:52;5.23;;;4.73;;
64887;SDS011;51386;53.082;8.816;2023-07-24T13:34:19;5.53;;;5.03;;
64887;SDS011;51386;53.082;8.816;2023-07-24T13:36:49;5.53;;;5.03;;
64887;SDS011;51386;53.082;8.816;2023-07-24T13:39:17;5.70;;;5.20;;
64887;SDS011;51386;53.082;8.816;2023-07-24T13:41:44;6.80;;;4.93;;
64887;SDS011;51386;53.082;8.816;2023-07-24T13:44:12;6.03;;;4.90;;
64887;SDS011;51386;53.082;8.816;2023-07-24T13:46:40;5.33;;;4.27;;
64887;SDS011;51386;53.082;8.816;2023-07-24T13:49:07;5.57;;;5.07;;
64887;SDS011;51386;53.082;8.816;2023-07-24T13:51:34;5.60;;;5.10;;
64887;SDS011;51386;53.082;8.816;2023-07-24T13:54:01;6.13;;;4.90;;
64887;SDS011;51386;53.082;8.816;2023-07-24T13:56:29;4.13;;;3.83;;
64887;SDS011;51386;53.082;8.816;2023-07-24T13:59:00;5.00;;;4.60;;
64887;SDS011;51386;53.082;8.816;2023-07-24T14:01:29;4.77;;;4.37;;
64887;SDS011;51386;53.082;8.816;2023-07-24T14:03:56;4.40;;;3.80;;
64887;SDS011;51386;53.082;8.816;2023-07-24T14:06:23;4.57;;;3.80;;
64887;SDS011;51386;53.082;8.816;2023-07-24T14:08:51;4.70;;;4.30;;
64887;SDS011;51386;53.082;8.816;2023-07-24T14:11:18;5.33;;;4.83;;
64887;SDS011;51386;53.082;8.816;2023-07-24T14:13:45;4.50;;;4.10;;
64887;SDS011;51386;53.082;8.816;2023-07-24T14:16:12;5.50;;;4.53;;
64887;SDS011;51386;53.082;8.816;2023-07-24T14:18:41;4.77;;;4.10;;
64887;SDS011;51386;53.082;8.816;2023-07-24T14:21:08;5.13;;;4.47;;
64887;SDS011;51386;53.082;8.816;2023-07-24T14:23:36;8.83;;;4.40;;
64887;SDS011;51386;53.082;8.816;2023-07-24T14:26:03;4.80;;;4.37;;
64887;SDS011;51386;53.082;8.816;2023-07-24T14:28:30;5.07;;;4.23;;
64887;SDS011;51386;53.082;8.816;2023-07-24T14:30:57;4.63;;;4.23;;
64887;SDS011;51386;53.082;8.816;2023-07-24T14:33:24;4.87;;;4.17;;
64887;SDS011;51386;53.082;8.816;2023-07-24T14:35:52;4.83;;;4.37;;
64887;SDS011;51386;53.082;8.816;2023-07-24T14:38:21;4.37;;;4.00;;
64887;SDS011;51386;53.082;8.816;2023-07-24T14:40:48;4.57;;;4.23;;
64887;SDS011;51386;53.082;8.816;2023-07-24T14:43:15;5.57;;;4.80;;
64887;SDS011;51386;53.082;8.816;2023-07-24T14:45:42;4.77;;;4.07;;
64887;SDS011;51386;53.082;8.816;2023-07-24T14:48:09;4.83;;;4.43;;
64887;SDS011;51386;53.082;8.816;2023-07-24T14:50:39;6.57;;;4.20;;
64887;SDS011;51386;53.082;8.816;2023-07-24T14:53:07;4.13;;;3.67;;
64887;SDS011;51386;53.082;8.816;2023-07-24T14:55:34;3.80;;;3.50;;